sensor_id;sensor_type;location;lat;lon;timestamp;P1;durP1;ratioP1;P2;durP2;ratioP2
68583;SDS011;55557;49.220;11.150;2023-11-19T00:01:23;2.87;;;2.30;;
68583;SDS011;55557;49.220;11.150;2023-11-19T00:03:49;3.93;;;2.37;;
68583;SDS011;55557;49.220;11.150;2023-11-19T00:06:15;3.50;;;2.20;;
68583;SDS011;55557;49.220;11.150;2023-11-19T00:08:41;2.70;;;2.20;;
68583;SDS011;55557;49.220;11.150;2023-11-19T00:11:08;2.37;;;2.17;;
68583;SDS011;55557;49.220;11.150;2023-11-19T00:13:34;2.93;;;2.30;;
68583;SDS011;55557;49.220;11.150;2023-11-19T00:16:00;3.30;;;2.10;;
68583;SDS011;55557;49.220;11.150;2023-11-19T00:18:29;3.73;;;2.53;;
68583;SDS011;55557;49.220;11.150;2023-11-19T00:20:55;3.57;;;2.20;;
68583;SDS011;55557;49.220;11.150;2023-11-19T00:23:21;2.10;;;1.90;;
68583;SDS011;55557;49.220;11.150;2023-11-19T00:25:48;2.97;;;2.17;;
68583;SDS011;55557;49.220;11.150;2023-11-19T00:28:14;2.90;;;2.00;;
68583;SDS011;55557;49.220;11.150;2023-11-19T00:30:40;3.00;;;2.10;;
68583;SDS011;55557;49.220;11.150;2023-11-19T00:33:06;3.67;;;2.50;;
68583;SDS011;55557;49.220;11.150;2023-11-19T00:35:32;3.83;;;2.27;;
68583;SDS011;55557;49.220;11.150;2023-11-19T00:37:58;2.20;;;2.00;;
68583;SDS011;55557;49.220;11.150;2023-11-19T00:40:24;2.53;;;2.33;;
68583;SDS011;55557;49.220;11.150;2023-11-19T00:42:50;2.60;;;2.40;;
68583;SDS011;55557;49.220;11.150;2023-11-19T00:45:16;4.77;;;2.30;;
68583;SDS011;55557;49.220;11.150;2023-11-19T00:47:42;2.60;;;2.20;;
68583;SDS011;55557;49.220;11.150;2023-11-19T00:50:08;2.93;;;2.70;;
68583;SDS011;55557;49.220;11.150;2023-11-19T00:52:34;2.40;;;2.13;;
68583;SDS011;55557;49.220;11.150;2023-11-19T00:55:01;2.20;;;2.00;;
68583;SDS011;55557;49.220;11.150;2023-11-19T00:57:27;3.90;;;2.47;;
68583;SDS011;55557;49.220;11.150;2023-11-19T00:59:53;3.57;;;2.67;;
68583;SDS011;55557;49.220;11.150;2023-11-19T01:02:19;2.60;;;2.30;;
68583;SDS011;55557;49.220;11.150;2023-11-19T01:04:45;2.50;;;2.30;;
68583;SDS011;55557;49.220;11.150;2023-11-19T01:07:11;7.83;;;3.27;;
68583;SDS011;55557;49.220;11.150;2023-11-19T01:09:37;2.97;;;2.33;;
68583;SDS011;55557;49.220;11.150;2023-11-19T01:12:04;2.73;;;2.40;;
68583;SDS011;55557;49.220;11.150;2023-11-19T01:14:30;2.00;;;1.90;;
68583;SDS011;55557;49.220;11.150;2023-11-19T01:16:56;3.30;;;2.20;;
68583;SDS011;55557;49.220;11.150;2023-11-19T01:19:22;2.33;;;2.13;;
68583;SDS011;55557;49.220;11.150;2023-11-19T01:21:49;2.37;;;2.13;;
68583;SDS011;55557;49.220;11.150;2023-11-19T01:24:15;2.63;;;2.07;;
68583;SDS011;55557;49.220;11.150;2023-11-19T01:26:42;2.43;;;2.00;;
68583;SDS011;55557;49.220;11.150;2023-11-19T01:29:10;2.30;;;2.10;;
68583;SDS011;55557;49.220;11.150;2023-11-19T01:31:38;2.33;;;2.10;;
68583;SDS011;55557;49.220;11.150;2023-11-19T01:34:04;2.73;;;2.20;;
68583;SDS011;55557;49.220;11.150;2023-11-19T01:36:30;2.90;;;2.10;;
68583;SDS011;55557;49.220;11.150;2023-11-19T01:38:56;5.73;;;2.43;;
68583;SDS011;55557;49.220;11.150;2023-11-19T01:41:22;3.30;;;2.63;;
68583;SDS011;55557;49.220;11.150;2023-11-19T01:43:49;3.80;;;2.67;;
68583;SDS011;55557;49.220;11.150;2023-11-19T01:46:15;2.47;;;2.27;;
68583;SDS011;55557;49.220;11.150;2023-11-19T01:48:45;2.83;;;2.33;;
68583;SDS011;55557;49.220;11.150;2023-11-19T01:51:12;3.20;;;2.90;;
68583;SDS011;55557;49.220;11.150;2023-11-19T01:53:41;2.57;;;2.33;;
68583;SDS011;55557;49.220;11.150;2023-11-19T01:56:11;4.83;;;2.53;;
68583;SDS011;55557;49.220;11.150;2023-11-19T01:58:39;2.70;;;2.27;;
68583;SDS011;55557;49.220;11.150;2023-11-19T02:01:06;5.83;;;2.43;;
68583;SDS011;55557;49.220;11.150;2023-11-19T02:03:35;3.50;;;2.90;;
68583;SDS011;55557;49.220;11.150;2023-11-19T02:06:01;3.40;;;2.97;;
68583;SDS011;55557;49.220;11.150;2023-11-19T02:08:27;3.60;;;3.10;;
68583;SDS011;55557;49.220;11.150;2023-11-19T02:10:53;3.00;;;2.70;;
68583;SDS011;55557;49.220;11.150;2023-11-19T02:13:22;3.97;;;2.97;;
68583;SDS011;55557;49.220;11.150;2023-11-19T02:15:49;3.40;;;2.67;;
68583;SDS011;55557;49.220;11.150;2023-11-19T02:20:44;4.27;;;3.07;;
68583;SDS011;55557;49.220;11.150;2023-11-19T02:23:12;3.27;;;2.97;;
68583;SDS011;55557;49.220;11.150;2023-11-19T02:25:39;3.47;;;2.73;;
68583;SDS011;55557;49.220;11.150;2023-11-19T02:28:05;3.73;;;3.33;;
68583;SDS011;55557;49.220;11.150;2023-11-19T02:30:31;4.60;;;3.30;;
68583;SDS011;55557;49.220;11.150;2023-11-19T02:33:01;3.97;;;3.20;;
68583;SDS011;55557;49.220;11.150;2023-11-19T02:35:30;4.07;;;3.33;;
68583;SDS011;55557;49.220;11.150;2023-11-19T02:37:57;4.00;;;3.47;;
68583;SDS011;55557;49.220;11.150;2023-11-19T02:40:24;4.50;;;3.53;;
68583;SDS011;55557;49.220;11.150;2023-11-19T02:42:50;3.33;;;2.90;;
68583;SDS011;55557;49.220;11.150;2023-11-19T02:45:16;3.63;;;3.13;;
68583;SDS011;55557;49.220;11.150;2023-11-19T02:47:43;6.30;;;3.27;;
68583;SDS011;55557;49.220;11.150;2023-11-19T02:50:09;3.37;;;3.07;;
68583;SDS011;55557;49.220;11.150;2023-11-19T02:52:42;4.17;;;3.47;;
68583;SDS011;55557;49.220;11.150;2023-11-19T02:55:08;4.30;;;2.83;;
68583;SDS011;55557;49.220;11.150;2023-11-19T02:57:35;3.17;;;2.87;;
68583;SDS011;55557;49.220;11.150;2023-11-19T03:00:01;6.87;;;3.60;;
68583;SDS011;55557;49.220;11.150;2023-11-19T03:02:37;4.17;;;3.30;;
68583;SDS011;55557;49.220;11.150;2023-11-19T03:05:09;3.13;;;2.80;;
68583;SDS011;55557;49.220;11.150;2023-11-19T03:07:36;6.03;;;2.77;;
68583;SDS011;55557;49.220;11.150;2023-11-19T03:10:02;4.80;;;3.00;;
68583;SDS011;55557;49.220;11.150;2023-11-19T03:12:30;3.67;;;3.23;;
68583;SDS011;55557;49.220;11.150;2023-11-19T03:14:56;3.20;;;2.63;;
68583;SDS011;55557;49.220;11.150;2023-11-19T03:17:22;3.33;;;2.90;;
68583;SDS011;55557;49.220;11.150;2023-11-19T03:19:49;3.73;;;3.30;;
68583;SDS011;55557;49.220;11.150;2023-11-19T03:22:15;3.27;;;2.67;;
68583;SDS011;55557;49.220;11.150;2023-11-19T03:24:41;3.33;;;3.03;;
68583;SDS011;55557;49.220;11.150;2023-11-19T03:27:07;3.27;;;2.97;;
68583;SDS011;55557;49.220;11.150;2023-11-19T03:29:33;3.43;;;3.13;;
68583;SDS011;55557;49.220;11.150;2023-11-19T03:31:59;3.03;;;2.70;;
68583;SDS011;55557;49.220;11.150;2023-11-19T03:34:25;3.37;;;3.07;;
68583;SDS011;55557;49.220;11.150;2023-11-19T03:36:51;4.47;;;3.23;;
68583;SDS011;55557;49.220;11.150;2023-11-19T03:39:17;10.70;;;3.53;;
68583;SDS011;55557;49.220;11.150;2023-11-19T03:41:45;3.50;;;2.87;;
68583;SDS011;55557;49.220;11.150;2023-11-19T03:44:14;3.27;;;2.87;;
68583;SDS011;55557;49.220;11.150;2023-11-19T03:46:40;5.13;;;3.47;;
68583;SDS011;55557;49.220;11.150;2023-11-19T03:49:06;3.83;;;3.43;;
68583;SDS011;55557;49.220;11.150;2023-11-19T03:51:32;4.00;;;3.10;;
68583;SDS011;55557;49.220;11.150;2023-11-19T03:53:59;4.93;;;3.63;;
68583;SDS011;55557;49.220;11.150;2023-11-19T03:56:26;4.20;;;3.60;;
68583;SDS011;55557;49.220;11.150;2023-11-19T03:58:52;4.27;;;3.40;;
68583;SDS011;55557;49.220;11.150;2023-11-19T04:01:18;3.70;;;3.20;;
68583;SDS011;55557;49.220;11.150;2023-11-19T04:03:44;5.00;;;3.37;;
68583;SDS011;55557;49.220;11.150;2023-11-19T04:06:10;10.90;;;3.70;;
68583;SDS011;55557;49.220;11.150;2023-11-19T04:08:36;4.67;;;3.50;;
68583;SDS011;55557;49.220;11.150;2023-11-19T04:11:07;3.77;;;3.37;;
68583;SDS011;55557;49.220;11.150;2023-11-19T04:13:36;3.70;;;3.27;;
68583;SDS011;55557;49.220;11.150;2023-11-19T04:16:02;4.20;;;3.40;;
68583;SDS011;55557;49.220;11.150;2023-11-19T04:18:28;6.43;;;4.00;;
68583;SDS011;55557;49.220;11.150;2023-11-19T04:20:54;4.97;;;3.90;;
68583;SDS011;55557;49.220;11.150;2023-11-19T04:23:20;4.67;;;3.87;;
68583;SDS011;55557;49.220;11.150;2023-11-19T04:25:46;5.17;;;3.77;;
68583;SDS011;55557;49.220;11.150;2023-11-19T04:28:12;4.00;;;3.60;;
68583;SDS011;55557;49.220;11.150;2023-11-19T04:30:38;4.50;;;3.60;;
68583;SDS011;55557;49.220;11.150;2023-11-19T04:33:04;4.20;;;3.43;;
68583;SDS011;55557;49.220;11.150;2023-11-19T04:35:30;4.00;;;3.20;;
68583;SDS011;55557;49.220;11.150;2023-11-19T04:37:56;4.07;;;3.40;;
68583;SDS011;55557;49.220;11.150;2023-11-19T04:40:23;3.57;;;3.27;;
68583;SDS011;55557;49.220;11.150;2023-11-19T04:42:49;4.17;;;3.30;;
68583;SDS011;55557;49.220;11.150;2023-11-19T04:45:15;4.10;;;3.40;;
68583;SDS011;55557;49.220;11.150;2023-11-19T04:47:41;3.73;;;3.37;;
68583;SDS011;55557;49.220;11.150;2023-11-19T04:50:07;4.80;;;4.00;;
68583;SDS011;55557;49.220;11.150;2023-11-19T04:52:37;4.83;;;3.40;;
68583;SDS011;55557;49.220;11.150;2023-11-19T04:55:05;3.27;;;2.97;;
68583;SDS011;55557;49.220;11.150;2023-11-19T04:57:31;3.67;;;3.03;;
68583;SDS011;55557;49.220;11.150;2023-11-19T04:59:57;4.80;;;3.80;;
68583;SDS011;55557;49.220;11.150;2023-11-19T05:02:23;5.30;;;3.43;;
68583;SDS011;55557;49.220;11.150;2023-11-19T05:04:49;11.33;;;6.80;;
68583;SDS011;55557;49.220;11.150;2023-11-19T05:07:16;3.07;;;2.77;;
68583;SDS011;55557;49.220;11.150;2023-11-19T05:09:41;3.93;;;3.43;;
68583;SDS011;55557;49.220;11.150;2023-11-19T05:12:08;3.73;;;3.23;;
68583;SDS011;55557;49.220;11.150;2023-11-19T05:14:37;4.07;;;2.60;;
68583;SDS011;55557;49.220;11.150;2023-11-19T05:17:03;3.67;;;2.73;;
68583;SDS011;55557;49.220;11.150;2023-11-19T05:19:29;3.53;;;2.70;;
68583;SDS011;55557;49.220;11.150;2023-11-19T05:21:55;3.10;;;2.47;;
68583;SDS011;55557;49.220;11.150;2023-11-19T05:24:21;3.73;;;3.00;;
68583;SDS011;55557;49.220;11.150;2023-11-19T05:26:47;2.70;;;2.50;;
68583;SDS011;55557;49.220;11.150;2023-11-19T05:29:15;3.10;;;2.70;;
68583;SDS011;55557;49.220;11.150;2023-11-19T05:31:42;2.97;;;2.40;;
68583;SDS011;55557;49.220;11.150;2023-11-19T05:34:08;2.77;;;2.40;;
68583;SDS011;55557;49.220;11.150;2023-11-19T05:36:34;5.93;;;2.90;;
68583;SDS011;55557;49.220;11.150;2023-11-19T05:39:00;1.70;;;1.60;;
68583;SDS011;55557;49.220;11.150;2023-11-19T05:41:26;1.77;;;1.67;;
68583;SDS011;55557;49.220;11.150;2023-11-19T05:43:52;1.87;;;1.63;;
68583;SDS011;55557;49.220;11.150;2023-11-19T05:46:18;2.73;;;2.23;;
68583;SDS011;55557;49.220;11.150;2023-11-19T05:48:44;1.77;;;1.63;;
68583;SDS011;55557;49.220;11.150;2023-11-19T05:51:11;1.77;;;1.60;;
68583;SDS011;55557;49.220;11.150;2023-11-19T05:53:38;1.83;;;1.50;;
68583;SDS011;55557;49.220;11.150;2023-11-19T05:56:04;2.13;;;1.93;;
68583;SDS011;55557;49.220;11.150;2023-11-19T05:58:32;2.27;;;1.63;;
68583;SDS011;55557;49.220;11.150;2023-11-19T06:00:58;1.77;;;1.60;;
68583;SDS011;55557;49.220;11.150;2023-11-19T06:03:28;1.77;;;1.67;;
68583;SDS011;55557;49.220;11.150;2023-11-19T06:05:54;4.77;;;1.40;;
68583;SDS011;55557;49.220;11.150;2023-11-19T06:08:20;1.70;;;1.60;;
68583;SDS011;55557;49.220;11.150;2023-11-19T06:10:46;1.97;;;1.50;;
68583;SDS011;55557;49.220;11.150;2023-11-19T06:13:12;1.83;;;1.50;;
68583;SDS011;55557;49.220;11.150;2023-11-19T06:15:41;2.00;;;1.80;;
68583;SDS011;55557;49.220;11.150;2023-11-19T06:18:07;1.80;;;1.70;;
68583;SDS011;55557;49.220;11.150;2023-11-19T06:20:33;2.00;;;1.80;;
68583;SDS011;55557;49.220;11.150;2023-11-19T06:22:59;1.83;;;1.73;;
68583;SDS011;55557;49.220;11.150;2023-11-19T06:25:25;2.43;;;1.83;;
68583;SDS011;55557;49.220;11.150;2023-11-19T06:27:52;2.27;;;2.00;;
68583;SDS011;55557;49.220;11.150;2023-11-19T06:30:18;2.53;;;2.20;;
68583;SDS011;55557;49.220;11.150;2023-11-19T06:32:45;3.27;;;2.30;;
68583;SDS011;55557;49.220;11.150;2023-11-19T06:35:12;2.17;;;1.97;;
68583;SDS011;55557;49.220;11.150;2023-11-19T06:37:39;2.17;;;1.97;;
68583;SDS011;55557;49.220;11.150;2023-11-19T06:40:05;3.03;;;2.33;;
68583;SDS011;55557;49.220;11.150;2023-11-19T06:42:32;5.00;;;2.77;;
68583;SDS011;55557;49.220;11.150;2023-11-19T06:44:58;3.03;;;2.40;;
68583;SDS011;55557;49.220;11.150;2023-11-19T06:47:27;3.17;;;2.87;;
68583;SDS011;55557;49.220;11.150;2023-11-19T06:49:54;2.40;;;2.20;;
68583;SDS011;55557;49.220;11.150;2023-11-19T06:52:20;2.90;;;2.13;;
68583;SDS011;55557;49.220;11.150;2023-11-19T06:54:46;2.50;;;2.03;;
68583;SDS011;55557;49.220;11.150;2023-11-19T06:57:12;3.57;;;2.90;;
68583;SDS011;55557;49.220;11.150;2023-11-19T06:59:39;3.63;;;2.30;;
68583;SDS011;55557;49.220;11.150;2023-11-19T07:02:05;5.53;;;4.60;;
68583;SDS011;55557;49.220;11.150;2023-11-19T07:04:34;3.13;;;2.57;;
68583;SDS011;55557;49.220;11.150;2023-11-19T07:07:03;5.23;;;3.33;;
68583;SDS011;55557;49.220;11.150;2023-11-19T07:09:30;2.23;;;2.03;;
68583;SDS011;55557;49.220;11.150;2023-11-19T07:12:01;4.57;;;3.20;;
68583;SDS011;55557;49.220;11.150;2023-11-19T07:14:29;3.07;;;2.70;;
68583;SDS011;55557;49.220;11.150;2023-11-19T07:16:55;6.47;;;4.37;;
68583;SDS011;55557;49.220;11.150;2023-11-19T07:19:23;5.00;;;2.77;;
68583;SDS011;55557;49.220;11.150;2023-11-19T07:21:49;2.37;;;2.10;;
68583;SDS011;55557;49.220;11.150;2023-11-19T07:24:15;2.30;;;2.00;;
68583;SDS011;55557;49.220;11.150;2023-11-19T07:26:45;3.17;;;2.00;;
68583;SDS011;55557;49.220;11.150;2023-11-19T07:29:12;2.47;;;1.80;;
68583;SDS011;55557;49.220;11.150;2023-11-19T07:31:38;2.53;;;1.90;;
68583;SDS011;55557;49.220;11.150;2023-11-19T07:34:04;2.10;;;1.90;;
68583;SDS011;55557;49.220;11.150;2023-11-19T07:36:31;2.23;;;2.07;;
68583;SDS011;55557;49.220;11.150;2023-11-19T07:38:58;2.33;;;1.90;;
68583;SDS011;55557;49.220;11.150;2023-11-19T07:41:24;3.60;;;2.23;;
68583;SDS011;55557;49.220;11.150;2023-11-19T07:43:51;9.57;;;2.33;;
68583;SDS011;55557;49.220;11.150;2023-11-19T07:46:17;3.73;;;2.37;;
68583;SDS011;55557;49.220;11.150;2023-11-19T07:48:45;3.20;;;2.20;;
68583;SDS011;55557;49.220;11.150;2023-11-19T07:51:13;2.57;;;2.10;;
68583;SDS011;55557;49.220;11.150;2023-11-19T07:53:39;5.30;;;3.05;;
68583;SDS011;55557;49.220;11.150;2023-11-19T07:56:06;3.43;;;2.50;;
68583;SDS011;55557;49.220;11.150;2023-11-19T07:58:32;4.63;;;3.20;;
68583;SDS011;55557;49.220;11.150;2023-11-19T08:00:58;5.07;;;3.87;;
68583;SDS011;55557;49.220;11.150;2023-11-19T08:03:24;2.93;;;2.30;;
68583;SDS011;55557;49.220;11.150;2023-11-19T08:05:50;2.67;;;1.53;;
68583;SDS011;55557;49.220;11.150;2023-11-19T08:08:16;2.93;;;1.90;;
68583;SDS011;55557;49.220;11.150;2023-11-19T08:10:42;3.83;;;2.00;;
68583;SDS011;55557;49.220;11.150;2023-11-19T08:13:09;2.40;;;1.90;;
68583;SDS011;55557;49.220;11.150;2023-11-19T08:15:35;3.33;;;2.23;;
68583;SDS011;55557;49.220;11.150;2023-11-19T08:18:01;2.57;;;1.97;;
68583;SDS011;55557;49.220;11.150;2023-11-19T08:20:27;2.17;;;1.97;;
68583;SDS011;55557;49.220;11.150;2023-11-19T08:22:53;2.40;;;1.90;;
68583;SDS011;55557;49.220;11.150;2023-11-19T08:25:19;2.77;;;2.27;;
68583;SDS011;55557;49.220;11.150;2023-11-19T08:27:45;3.70;;;3.03;;
68583;SDS011;55557;49.220;11.150;2023-11-19T08:30:11;4.00;;;3.60;;
68583;SDS011;55557;49.220;11.150;2023-11-19T08:32:38;4.73;;;4.23;;
68583;SDS011;55557;49.220;11.150;2023-11-19T08:35:04;4.30;;;2.57;;
68583;SDS011;55557;49.220;11.150;2023-11-19T08:37:30;5.13;;;3.00;;
68583;SDS011;55557;49.220;11.150;2023-11-19T08:39:56;2.37;;;1.80;;
68583;SDS011;55557;49.220;11.150;2023-11-19T08:42:22;2.37;;;2.17;;
68583;SDS011;55557;49.220;11.150;2023-11-19T08:44:48;1.90;;;1.70;;
68583;SDS011;55557;49.220;11.150;2023-11-19T08:47:15;2.07;;;1.87;;
68583;SDS011;55557;49.220;11.150;2023-11-19T08:49:43;3.83;;;2.17;;
68583;SDS011;55557;49.220;11.150;2023-11-19T08:52:09;2.47;;;2.27;;
68583;SDS011;55557;49.220;11.150;2023-11-19T08:54:35;1.47;;;1.37;;
68583;SDS011;55557;49.220;11.150;2023-11-19T08:57:01;2.50;;;1.53;;
68583;SDS011;55557;49.220;11.150;2023-11-19T08:59:28;2.90;;;1.30;;
68583;SDS011;55557;49.220;11.150;2023-11-19T09:01:54;2.07;;;1.70;;
68583;SDS011;55557;49.220;11.150;2023-11-19T09:04:20;1.83;;;1.60;;
68583;SDS011;55557;49.220;11.150;2023-11-19T09:06:49;1.83;;;1.37;;
68583;SDS011;55557;49.220;11.150;2023-11-19T09:09:15;3.73;;;1.73;;
68583;SDS011;55557;49.220;11.150;2023-11-19T09:11:41;2.37;;;1.60;;
68583;SDS011;55557;49.220;11.150;2023-11-19T09:14:07;3.00;;;1.80;;
68583;SDS011;55557;49.220;11.150;2023-11-19T09:16:33;1.73;;;1.03;;
68583;SDS011;55557;49.220;11.150;2023-11-19T09:18:59;2.47;;;1.67;;
68583;SDS011;55557;49.220;11.150;2023-11-19T09:21:27;1.20;;;1.10;;
68583;SDS011;55557;49.220;11.150;2023-11-19T09:23:54;2.13;;;1.50;;
68583;SDS011;55557;49.220;11.150;2023-11-19T09:26:20;1.50;;;1.27;;
68583;SDS011;55557;49.220;11.150;2023-11-19T09:28:46;3.50;;;1.77;;
68583;SDS011;55557;49.220;11.150;2023-11-19T09:31:13;4.17;;;1.63;;
68583;SDS011;55557;49.220;11.150;2023-11-19T09:33:39;1.37;;;1.23;;
68583;SDS011;55557;49.220;11.150;2023-11-19T09:36:05;1.10;;;1.00;;
68583;SDS011;55557;49.220;11.150;2023-11-19T09:38:31;2.23;;;1.30;;
68583;SDS011;55557;49.220;11.150;2023-11-19T09:41:00;2.60;;;1.40;;
68583;SDS011;55557;49.220;11.150;2023-11-19T09:43:27;0.80;;;0.80;;
68583;SDS011;55557;49.220;11.150;2023-11-19T09:45:55;3.77;;;1.30;;
68583;SDS011;55557;49.220;11.150;2023-11-19T09:48:22;3.40;;;2.30;;
68583;SDS011;55557;49.220;11.150;2023-11-19T09:50:50;1.37;;;1.20;;
68583;SDS011;55557;49.220;11.150;2023-11-19T09:53:17;2.40;;;1.40;;
68583;SDS011;55557;49.220;11.150;2023-11-19T09:55:45;1.77;;;1.10;;
68583;SDS011;55557;49.220;11.150;2023-11-19T09:58:11;0.90;;;0.90;;
68583;SDS011;55557;49.220;11.150;2023-11-19T10:00:37;2.50;;;1.37;;
68583;SDS011;55557;49.220;11.150;2023-11-19T10:03:04;2.40;;;1.53;;
68583;SDS011;55557;49.220;11.150;2023-11-19T10:05:30;2.20;;;1.47;;
68583;SDS011;55557;49.220;11.150;2023-11-19T10:07:56;3.93;;;2.03;;
68583;SDS011;55557;49.220;11.150;2023-11-19T10:10:22;14.07;;;2.00;;
68583;SDS011;55557;49.220;11.150;2023-11-19T10:12:50;1.93;;;1.60;;
68583;SDS011;55557;49.220;11.150;2023-11-19T10:15:20;4.07;;;1.20;;
68583;SDS011;55557;49.220;11.150;2023-11-19T10:17:51;1.63;;;1.53;;
68583;SDS011;55557;49.220;11.150;2023-11-19T10:20:17;0.93;;;0.83;;
68583;SDS011;55557;49.220;11.150;2023-11-19T10:22:43;2.47;;;2.27;;
68583;SDS011;55557;49.220;11.150;2023-11-19T10:27:48;3.27;;;2.30;;
68583;SDS011;55557;49.220;11.150;2023-11-19T10:30:17;3.30;;;2.33;;
68583;SDS011;55557;49.220;11.150;2023-11-19T10:32:44;4.50;;;2.57;;
68583;SDS011;55557;49.220;11.150;2023-11-19T10:35:10;3.87;;;2.20;;
68583;SDS011;55557;49.220;11.150;2023-11-19T10:37:38;3.70;;;2.07;;
68583;SDS011;55557;49.220;11.150;2023-11-19T10:40:04;10.07;;;4.17;;
68583;SDS011;55557;49.220;11.150;2023-11-19T10:42:31;3.60;;;1.53;;
68583;SDS011;55557;49.220;11.150;2023-11-19T10:44:57;4.03;;;1.80;;
68583;SDS011;55557;49.220;11.150;2023-11-19T10:47:22;11.73;;;4.47;;
68583;SDS011;55557;49.220;11.150;2023-11-19T10:49:49;9.13;;;4.00;;
68583;SDS011;55557;49.220;11.150;2023-11-19T10:52:17;5.73;;;2.90;;
68583;SDS011;55557;49.220;11.150;2023-11-19T10:54:48;4.20;;;2.43;;
68583;SDS011;55557;49.220;11.150;2023-11-19T10:57:19;6.37;;;2.97;;
68583;SDS011;55557;49.220;11.150;2023-11-19T10:59:47;4.97;;;3.10;;
68583;SDS011;55557;49.220;11.150;2023-11-19T11:02:14;15.70;;;6.47;;
68583;SDS011;55557;49.220;11.150;2023-11-19T11:04:42;5.63;;;3.37;;
68583;SDS011;55557;49.220;11.150;2023-11-19T11:07:08;3.90;;;1.93;;
68583;SDS011;55557;49.220;11.150;2023-11-19T11:09:34;4.53;;;2.70;;
68583;SDS011;55557;49.220;11.150;2023-11-19T11:12:01;6.20;;;3.57;;
68583;SDS011;55557;49.220;11.150;2023-11-19T11:14:28;3.03;;;1.97;;
68583;SDS011;55557;49.220;11.150;2023-11-19T11:16:54;6.53;;;3.40;;
68583;SDS011;55557;49.220;11.150;2023-11-19T11:19:21;5.30;;;2.50;;
68583;SDS011;55557;49.220;11.150;2023-11-19T11:21:52;4.20;;;2.17;;
68583;SDS011;55557;49.220;11.150;2023-11-19T11:34:39;3.83;;;2.07;;
68583;SDS011;55557;49.220;11.150;2023-11-19T11:39:36;3.30;;;2.07;;
68583;SDS011;55557;49.220;11.150;2023-11-19T11:50:08;2.27;;;1.57;;
68583;SDS011;55557;49.220;11.150;2023-11-19T11:55:23;6.13;;;1.40;;
68583;SDS011;55557;49.220;11.150;2023-11-19T11:57:49;1.97;;;1.60;;
68583;SDS011;55557;49.220;11.150;2023-11-19T12:02:57;4.47;;;1.13;;
68583;SDS011;55557;49.220;11.150;2023-11-19T12:05:23;2.07;;;1.40;;
68583;SDS011;55557;49.220;11.150;2023-11-19T12:07:59;5.93;;;1.37;;
68583;SDS011;55557;49.220;11.150;2023-11-19T12:10:26;3.70;;;1.50;;
68583;SDS011;55557;49.220;11.150;2023-11-19T12:12:59;2.20;;;1.30;;
68583;SDS011;55557;49.220;11.150;2023-11-19T12:15:25;6.40;;;1.63;;
68583;SDS011;55557;49.220;11.150;2023-11-19T12:17:52;1.57;;;1.00;;
68583;SDS011;55557;49.220;11.150;2023-11-19T12:20:22;1.97;;;1.10;;
68583;SDS011;55557;49.220;11.150;2023-11-19T12:22:48;3.27;;;1.10;;
68583;SDS011;55557;49.220;11.150;2023-11-19T12:25:14;1.63;;;1.20;;
68583;SDS011;55557;49.220;11.150;2023-11-19T12:27:48;1.43;;;1.33;;
68583;SDS011;55557;49.220;11.150;2023-11-19T12:30:23;2.07;;;0.90;;
68583;SDS011;55557;49.220;11.150;2023-11-19T12:32:49;0.97;;;0.73;;
68583;SDS011;55557;49.220;11.150;2023-11-19T12:35:16;2.93;;;1.33;;
68583;SDS011;55557;49.220;11.150;2023-11-19T12:37:42;2.13;;;1.03;;
68583;SDS011;55557;49.220;11.150;2023-11-19T12:40:12;5.00;;;1.53;;
68583;SDS011;55557;49.220;11.150;2023-11-19T12:42:38;2.10;;;0.80;;
68583;SDS011;55557;49.220;11.150;2023-11-19T12:45:04;3.13;;;0.80;;
68583;SDS011;55557;49.220;11.150;2023-11-19T12:47:31;3.07;;;1.33;;
68583;SDS011;55557;49.220;11.150;2023-11-19T12:49:57;1.50;;;0.90;;
68583;SDS011;55557;49.220;11.150;2023-11-19T12:52:23;3.43;;;1.37;;
68583;SDS011;55557;49.220;11.150;2023-11-19T12:54:49;2.87;;;1.63;;
68583;SDS011;55557;49.220;11.150;2023-11-19T12:57:15;3.60;;;0.90;;
68583;SDS011;55557;49.220;11.150;2023-11-19T12:59:41;6.10;;;1.03;;
68583;SDS011;55557;49.220;11.150;2023-11-19T13:02:08;1.50;;;1.03;;
68583;SDS011;55557;49.220;11.150;2023-11-19T13:04:34;1.50;;;0.90;;
68583;SDS011;55557;49.220;11.150;2023-11-19T13:07:00;2.67;;;1.00;;
68583;SDS011;55557;49.220;11.150;2023-11-19T13:09:29;3.33;;;0.93;;
68583;SDS011;55557;49.220;11.150;2023-11-19T13:11:55;5.90;;;1.27;;
68583;SDS011;55557;49.220;11.150;2023-11-19T13:14:22;1.70;;;0.90;;
68583;SDS011;55557;49.220;11.150;2023-11-19T13:16:48;3.37;;;1.00;;
68583;SDS011;55557;49.220;11.150;2023-11-19T13:19:15;2.67;;;0.73;;
68583;SDS011;55557;49.220;11.150;2023-11-19T13:21:45;1.03;;;0.93;;
68583;SDS011;55557;49.220;11.150;2023-11-19T13:24:14;4.03;;;1.10;;
68583;SDS011;55557;49.220;11.150;2023-11-19T13:26:40;5.70;;;0.93;;
68583;SDS011;55557;49.220;11.150;2023-11-19T13:29:06;1.33;;;1.23;;
68583;SDS011;55557;49.220;11.150;2023-11-19T13:31:36;7.43;;;1.23;;
68583;SDS011;55557;49.220;11.150;2023-11-19T13:34:02;8.60;;;0.63;;
68583;SDS011;55557;49.220;11.150;2023-11-19T13:36:28;3.27;;;1.00;;
68583;SDS011;55557;49.220;11.150;2023-11-19T13:38:54;1.93;;;1.80;;
68583;SDS011;55557;49.220;11.150;2023-11-19T13:41:24;2.00;;;0.87;;
68583;SDS011;55557;49.220;11.150;2023-11-19T13:43:50;2.90;;;1.80;;
68583;SDS011;55557;49.220;11.150;2023-11-19T13:46:16;2.13;;;1.10;;
68583;SDS011;55557;49.220;11.150;2023-11-19T13:48:42;1.10;;;0.70;;
68583;SDS011;55557;49.220;11.150;2023-11-19T13:51:08;1.80;;;0.60;;
68583;SDS011;55557;49.220;11.150;2023-11-19T13:53:35;2.10;;;1.00;;
68583;SDS011;55557;49.220;11.150;2023-11-19T13:56:01;1.23;;;0.77;;
68583;SDS011;55557;49.220;11.150;2023-11-19T13:58:27;2.13;;;1.43;;
68583;SDS011;55557;49.220;11.150;2023-11-19T14:00:58;2.43;;;0.70;;
68583;SDS011;55557;49.220;11.150;2023-11-19T14:03:24;1.93;;;1.40;;
68583;SDS011;55557;49.220;11.150;2023-11-19T14:05:50;1.10;;;0.90;;
68583;SDS011;55557;49.220;11.150;2023-11-19T14:08:19;4.33;;;0.77;;
68583;SDS011;55557;49.220;11.150;2023-11-19T14:10:45;2.60;;;0.80;;
68583;SDS011;55557;49.220;11.150;2023-11-19T14:13:11;0.80;;;0.60;;
68583;SDS011;55557;49.220;11.150;2023-11-19T14:15:40;1.27;;;0.60;;
68583;SDS011;55557;49.220;11.150;2023-11-19T14:18:07;3.00;;;1.17;;
68583;SDS011;55557;49.220;11.150;2023-11-19T14:20:33;2.43;;;0.90;;
68583;SDS011;55557;49.220;11.150;2023-11-19T14:23:00;3.90;;;0.83;;
68583;SDS011;55557;49.220;11.150;2023-11-19T14:25:27;4.80;;;1.83;;
68583;SDS011;55557;49.220;11.150;2023-11-19T14:27:53;5.37;;;1.97;;
68583;SDS011;55557;49.220;11.150;2023-11-19T14:30:19;2.67;;;1.00;;
68583;SDS011;55557;49.220;11.150;2023-11-19T14:32:45;2.20;;;1.13;;
68583;SDS011;55557;49.220;11.150;2023-11-19T14:35:13;2.47;;;1.40;;
68583;SDS011;55557;49.220;11.150;2023-11-19T14:37:39;5.27;;;3.17;;
68583;SDS011;55557;49.220;11.150;2023-11-19T14:40:05;5.27;;;2.23;;
68583;SDS011;55557;49.220;11.150;2023-11-19T14:42:34;1.63;;;1.03;;
68583;SDS011;55557;49.220;11.150;2023-11-19T14:45:00;3.60;;;0.90;;
68583;SDS011;55557;49.220;11.150;2023-11-19T14:47:26;3.07;;;1.07;;
68583;SDS011;55557;49.220;11.150;2023-11-19T14:49:52;2.33;;;1.10;;
68583;SDS011;55557;49.220;11.150;2023-11-19T14:52:18;1.53;;;0.77;;
68583;SDS011;55557;49.220;11.150;2023-11-19T14:54:44;1.43;;;1.10;;
68583;SDS011;55557;49.220;11.150;2023-11-19T14:57:10;5.53;;;1.00;;
68583;SDS011;55557;49.220;11.150;2023-11-19T14:59:38;2.13;;;1.10;;
68583;SDS011;55557;49.220;11.150;2023-11-19T15:02:04;1.97;;;1.10;;